sensor_id;sensor_type;location;lat;lon;timestamp;temperature;humidity
66213;SHT31;53015;50.046;8.238;2023-08-30T00:00:34;15.92;86.47
66213;SHT31;53015;50.046;8.238;2023-08-30T00:02:59;15.98;86.13
66213;SHT31;53015;50.046;8.238;2023-08-30T00:05:25;16.01;85.93
66213;SHT31;53015;50.046;8.238;2023-08-30T00:07:52;16.02;85.92
66213;SHT31;53015;50.046;8.238;2023-08-30T00:10:17;16.04;85.60
66213;SHT31;53015;50.046;8.238;2023-08-30T00:12:43;16.06;85.45
66213;SHT31;53015;50.046;8.238;2023-08-30T00:15:08;16.10;86.01
66213;SHT31;53015;50.046;8.238;2023-08-30T00:17:34;16.01;86.41
66213;SHT31;53015;50.046;8.238;2023-08-30T00:20:00;16.02;85.67
66213;SHT31;53015;50.046;8.238;2023-08-30T00:22:25;15.97;85.90
66213;SHT31;53015;50.046;8.238;2023-08-30T00:24:52;16.01;86.03
66213;SHT31;53015;50.046;8.238;2023-08-30T00:27:18;15.99;86.27
66213;SHT31;53015;50.046;8.238;2023-08-30T00:29:43;15.98;86.36
66213;SHT31;53015;50.046;8.238;2023-08-30T00:32:09;16.01;86.27
66213;SHT31;53015;50.046;8.238;2023-08-30T00:34:35;16.06;86.30
66213;SHT31;53015;50.046;8.238;2023-08-30T00:37:00;16.06;86.37
66213;SHT31;53015;50.046;8.238;2023-08-30T00:39:25;16.10;86.36
66213;SHT31;53015;50.046;8.238;2023-08-30T00:41:52;16.01;86.16
66213;SHT31;53015;50.046;8.238;2023-08-30T00:44:18;15.92;86.43
66213;SHT31;53015;50.046;8.238;2023-08-30T00:46:43;15.95;86.19
66213;SHT31;53015;50.046;8.238;2023-08-30T00:49:09;15.84;85.46
66213;SHT31;53015;50.046;8.238;2023-08-30T00:51:35;15.87;86.04
66213;SHT31;53015;50.046;8.238;2023-08-30T00:54:00;16.02;85.83
66213;SHT31;53015;50.046;8.238;2023-08-30T00:56:27;16.06;85.75
66213;SHT31;53015;50.046;8.238;2023-08-30T00:58:55;16.04;86.62
66213;SHT31;53015;50.046;8.238;2023-08-30T01:01:21;15.84;86.32
66213;SHT31;53015;50.046;8.238;2023-08-30T01:03:46;15.94;86.07
66213;SHT31;53015;50.046;8.238;2023-08-30T01:06:12;16.02;86.43
66213;SHT31;53015;50.046;8.238;2023-08-30T01:08:37;16.02;86.69
66213;SHT31;53015;50.046;8.238;2023-08-30T01:11:10;15.97;86.10
66213;SHT31;53015;50.046;8.238;2023-08-30T01:13:42;15.80;86.69
66213;SHT31;53015;50.046;8.238;2023-08-30T01:16:10;15.80;86.48
66213;SHT31;53015;50.046;8.238;2023-08-30T01:18:36;15.92;85.92
66213;SHT31;53015;50.046;8.238;2023-08-30T01:21:04;15.72;85.92
66213;SHT31;53015;50.046;8.238;2023-08-30T01:23:41;15.72;85.98
66213;SHT31;53015;50.046;8.238;2023-08-30T01:26:10;15.50;86.83
66213;SHT31;53015;50.046;8.238;2023-08-30T01:28:38;15.58;86.84
66213;SHT31;53015;50.046;8.238;2023-08-30T01:31:06;15.36;87.27
66213;SHT31;53015;50.046;8.238;2023-08-30T01:33:33;15.43;86.94
66213;SHT31;53015;50.046;8.238;2023-08-30T01:36:00;15.44;87.17
66213;SHT31;53015;50.046;8.238;2023-08-30T01:38:27;15.49;87.22
66213;SHT31;53015;50.046;8.238;2023-08-30T01:40:55;15.49;87.10
66213;SHT31;53015;50.046;8.238;2023-08-30T01:43:21;15.54;87.61
66213;SHT31;53015;50.046;8.238;2023-08-30T01:45:48;15.60;87.39
66213;SHT31;53015;50.046;8.238;2023-08-30T01:48:16;15.40;87.60
66213;SHT31;53015;50.046;8.238;2023-08-30T01:50:43;15.36;87.75
66213;SHT31;53015;50.046;8.238;2023-08-30T01:53:11;15.36;88.43
66213;SHT31;53015;50.046;8.238;2023-08-30T01:55:38;15.54;88.09
66213;SHT31;53015;50.046;8.238;2023-08-30T01:58:06;15.60;87.85
66213;SHT31;53015;50.046;8.238;2023-08-30T02:00:32;15.68;88.16
66213;SHT31;53015;50.046;8.238;2023-08-30T02:02:59;15.70;88.08
66213;SHT31;53015;50.046;8.238;2023-08-30T02:05:24;15.80;87.03
66213;SHT31;53015;50.046;8.238;2023-08-30T02:07:55;15.77;87.10
66213;SHT31;53015;50.046;8.238;2023-08-30T02:10:24;15.81;87.18
66213;SHT31;53015;50.046;8.238;2023-08-30T02:12:52;15.85;86.67
66213;SHT31;53015;50.046;8.238;2023-08-30T02:15:19;15.90;86.54
66213;SHT31;53015;50.046;8.238;2023-08-30T02:17:45;15.88;86.32
66213;SHT31;53015;50.046;8.238;2023-08-30T02:20:12;15.88;86.90
66213;SHT31;53015;50.046;8.238;2023-08-30T02:22:38;15.75;87.30
66213;SHT31;53015;50.046;8.238;2023-08-30T02:25:04;15.65;87.37
66213;SHT31;53015;50.046;8.238;2023-08-30T02:27:30;15.61;87.53
66213;SHT31;53015;50.046;8.238;2023-08-30T02:29:55;15.57;87.88
66213;SHT31;53015;50.046;8.238;2023-08-30T02:32:21;15.51;88.40
66213;SHT31;53015;50.046;8.238;2023-08-30T02:34:48;15.53;88.54
66213;SHT31;53015;50.046;8.238;2023-08-30T02:37:15;15.53;88.71
66213;SHT31;53015;50.046;8.238;2023-08-30T02:39:41;15.55;88.75
66213;SHT31;53015;50.046;8.238;2023-08-30T02:42:06;15.61;88.87
66213;SHT31;53015;50.046;8.238;2023-08-30T02:44:32;15.68;88.45
66213;SHT31;53015;50.046;8.238;2023-08-30T02:46:57;15.64;88.52
66213;SHT31;53015;50.046;8.238;2023-08-30T02:49:22;15.65;88.28
66213;SHT31;53015;50.046;8.238;2023-08-30T02:51:48;15.67;88.37
66213;SHT31;53015;50.046;8.238;2023-08-30T02:54:15;15.65;88.16
66213;SHT31;53015;50.046;8.238;2023-08-30T02:56:42;15.58;88.05
66213;SHT31;53015;50.046;8.238;2023-08-30T02:59:07;15.64;87.92
66213;SHT31;53015;50.046;8.238;2023-08-30T03:01:34;15.54;88.00
66213;SHT31;53015;50.046;8.238;2023-08-30T03:03:59;15.58;87.87
66213;SHT31;53015;50.046;8.238;2023-08-30T03:06:25;15.65;87.72
66213;SHT31;53015;50.046;8.238;2023-08-30T03:08:50;15.58;87.83
66213;SHT31;53015;50.046;8.238;2023-08-30T03:11:17;15.61;88.24
66213;SHT31;53015;50.046;8.238;2023-08-30T03:13:43;15.53;87.80
66213;SHT31;53015;50.046;8.238;2023-08-30T03:16:11;15.42;88.02
66213;SHT31;53015;50.046;8.238;2023-08-30T03:18:37;15.35;87.00
66213;SHT31;53015;50.046;8.238;2023-08-30T03:21:02;15.20;87.44
66213;SHT31;53015;50.046;8.238;2023-08-30T03:23:28;15.09;87.81
66213;SHT31;53015;50.046;8.238;2023-08-30T03:25:53;15.00;88.18
66213;SHT31;53015;50.046;8.238;2023-08-30T03:28:21;14.98;88.74
66213;SHT31;53015;50.046;8.238;2023-08-30T03:30:47;14.89;89.40
66213;SHT31;53015;50.046;8.238;2023-08-30T03:33:14;15.09;89.27
66213;SHT31;53015;50.046;8.238;2023-08-30T03:35:39;15.32;88.77
66213;SHT31;53015;50.046;8.238;2023-08-30T03:38:05;15.46;88.38
66213;SHT31;53015;50.046;8.238;2023-08-30T03:40:30;15.50;87.86
66213;SHT31;53015;50.046;8.238;2023-08-30T03:42:56;15.46;88.28
66213;SHT31;53015;50.046;8.238;2023-08-30T03:45:23;15.46;88.32
66213;SHT31;53015;50.046;8.238;2023-08-30T03:47:48;15.47;88.51
66213;SHT31;53015;50.046;8.238;2023-08-30T03:50:14;15.51;88.50
66213;SHT31;53015;50.046;8.238;2023-08-30T03:52:40;15.51;88.83
66213;SHT31;53015;50.046;8.238;2023-08-30T03:55:06;15.46;88.93
66213;SHT31;53015;50.046;8.238;2023-08-30T03:57:31;15.37;89.32
66213;SHT31;53015;50.046;8.238;2023-08-30T03:59:57;15.36;89.41
66213;SHT31;53015;50.046;8.238;2023-08-30T04:02:24;15.42;89.26
66213;SHT31;53015;50.046;8.238;2023-08-30T04:04:49;15.27;89.76
66213;SHT31;53015;50.046;8.238;2023-08-30T04:07:15;15.33;89.66
66213;SHT31;53015;50.046;8.238;2023-08-30T04:09:41;15.42;89.18
66213;SHT31;53015;50.046;8.238;2023-08-30T04:12:06;15.47;89.24
66213;SHT31;53015;50.046;8.238;2023-08-30T04:14:32;15.50;89.34
66213;SHT31;53015;50.046;8.238;2023-08-30T04:16:58;15.43;89.32
66213;SHT31;53015;50.046;8.238;2023-08-30T04:19:24;15.36;89.36
66213;SHT31;53015;50.046;8.238;2023-08-30T04:21:50;15.22;89.66
66213;SHT31;53015;50.046;8.238;2023-08-30T04:24:15;15.22;89.84
66213;SHT31;53015;50.046;8.238;2023-08-30T04:26:41;15.27;89.80
66213;SHT31;53015;50.046;8.238;2023-08-30T04:29:07;15.23;89.71
66213;SHT31;53015;50.046;8.238;2023-08-30T04:31:32;14.99;89.98
66213;SHT31;53015;50.046;8.238;2023-08-30T04:33:58;14.88;90.28
66213;SHT31;53015;50.046;8.238;2023-08-30T04:36:25;14.85;89.81
66213;SHT31;53015;50.046;8.238;2023-08-30T04:38:50;14.67;90.28
66213;SHT31;53015;50.046;8.238;2023-08-30T04:41:16;14.72;90.58
66213;SHT31;53015;50.046;8.238;2023-08-30T04:43:41;14.85;90.58
66213;SHT31;53015;50.046;8.238;2023-08-30T04:46:07;14.89;90.44
66213;SHT31;53015;50.046;8.238;2023-08-30T04:48:32;15.09;89.95
66213;SHT31;53015;50.046;8.238;2023-08-30T04:50:59;15.15;89.66
66213;SHT31;53015;50.046;8.238;2023-08-30T04:53:26;14.81;90.18
66213;SHT31;53015;50.046;8.238;2023-08-30T04:55:51;14.92;90.26
66213;SHT31;53015;50.046;8.238;2023-08-30T04:58:17;14.93;90.07
66213;SHT31;53015;50.046;8.238;2023-08-30T05:00:42;14.85;90.66
66213;SHT31;53015;50.046;8.238;2023-08-30T05:03:08;14.96;90.44
66213;SHT31;53015;50.046;8.238;2023-08-30T05:05:33;15.03;90.21
66213;SHT31;53015;50.046;8.238;2023-08-30T05:07:59;14.93;90.31
66213;SHT31;53015;50.046;8.238;2023-08-30T05:10:26;14.98;90.47
66213;SHT31;53015;50.046;8.238;2023-08-30T05:12:51;14.78;90.60
66213;SHT31;53015;50.046;8.238;2023-08-30T05:15:17;14.95;90.39
66213;SHT31;53015;50.046;8.238;2023-08-30T05:17:42;15.12;90.06
66213;SHT31;53015;50.046;8.238;2023-08-30T05:20:08;15.10;90.19
66213;SHT31;53015;50.046;8.238;2023-08-30T05:22:34;15.16;90.16
66213;SHT31;53015;50.046;8.238;2023-08-30T05:25:00;15.19;90.05
66213;SHT31;53015;50.046;8.238;2023-08-30T05:27:27;15.22;90.01
66213;SHT31;53015;50.046;8.238;2023-08-30T05:29:52;15.22;90.09
66213;SHT31;53015;50.046;8.238;2023-08-30T05:32:18;15.19;90.21
66213;SHT31;53015;50.046;8.238;2023-08-30T05:34:43;14.93;91.01
66213;SHT31;53015;50.046;8.238;2023-08-30T05:37:09;14.87;91.23
66213;SHT31;53015;50.046;8.238;2023-08-30T05:39:35;14.92;91.28
66213;SHT31;53015;50.046;8.238;2023-08-30T05:42:00;14.88;91.14
66213;SHT31;53015;50.046;8.238;2023-08-30T05:44:27;14.98;91.10
66213;SHT31;53015;50.046;8.238;2023-08-30T05:46:53;15.02;90.87
66213;SHT31;53015;50.046;8.238;2023-08-30T05:49:18;15.32;89.97
66213;SHT31;53015;50.046;8.238;2023-08-30T05:51:44;15.37;89.83
66213;SHT31;53015;50.046;8.238;2023-08-30T05:54:09;15.36;89.78
66213;SHT31;53015;50.046;8.238;2023-08-30T05:56:35;15.55;89.25
66213;SHT31;53015;50.046;8.238;2023-08-30T05:59:00;15.58;89.01
66213;SHT31;53015;50.046;8.238;2023-08-30T06:01:27;15.67;88.75
66213;SHT31;53015;50.046;8.238;2023-08-30T06:03:53;15.77;88.76
66213;SHT31;53015;50.046;8.238;2023-08-30T06:06:18;15.78;88.64
66213;SHT31;53015;50.046;8.238;2023-08-30T06:08:44;15.74;88.49
66213;SHT31;53015;50.046;8.238;2023-08-30T06:11:09;15.55;89.04
66213;SHT31;53015;50.046;8.238;2023-08-30T06:13:35;15.44;89.73
66213;SHT31;53015;50.046;8.238;2023-08-30T06:16:00;15.64;89.52
66213;SHT31;53015;50.046;8.238;2023-08-30T06:18:30;15.64;89.76
66213;SHT31;53015;50.046;8.238;2023-08-30T06:20:56;15.81;89.25
66213;SHT31;53015;50.046;8.238;2023-08-30T06:23:21;16.01;88.79
66213;SHT31;53015;50.046;8.238;2023-08-30T06:25:53;16.12;88.74
66213;SHT31;53015;50.046;8.238;2023-08-30T06:28:19;16.26;88.05
66213;SHT31;53015;50.046;8.238;2023-08-30T06:30:44;16.36;87.71
66213;SHT31;53015;50.046;8.238;2023-08-30T06:33:10;16.33;88.14
66213;SHT31;53015;50.046;8.238;2023-08-30T06:35:37;16.30;88.36
66213;SHT31;53015;50.046;8.238;2023-08-30T06:38:03;16.36;88.40
66213;SHT31;53015;50.046;8.238;2023-08-30T06:40:30;16.46;87.91
66213;SHT31;53015;50.046;8.238;2023-08-30T06:42:55;16.59;87.41
66213;SHT31;53015;50.046;8.238;2023-08-30T06:45:21;16.68;87.54
66213;SHT31;53015;50.046;8.238;2023-08-30T06:47:48;16.70;87.24
66213;SHT31;53015;50.046;8.238;2023-08-30T06:50:13;16.71;87.31
66213;SHT31;53015;50.046;8.238;2023-08-30T06:52:40;16.61;88.15
66213;SHT31;53015;50.046;8.238;2023-08-30T06:55:06;16.87;86.75
66213;SHT31;53015;50.046;8.238;2023-08-30T06:57:32;17.00;86.07
66213;SHT31;53015;50.046;8.238;2023-08-30T06:59:58;16.95;86.28
66213;SHT31;53015;50.046;8.238;2023-08-30T07:02:23;16.68;87.08
66213;SHT31;53015;50.046;8.238;2023-08-30T07:04:49;16.71;86.72
66213;SHT31;53015;50.046;8.238;2023-08-30T07:07:14;17.01;85.22
66213;SHT31;53015;50.046;8.238;2023-08-30T07:09:41;16.96;85.56
66213;SHT31;53015;50.046;8.238;2023-08-30T07:12:07;17.10;83.88
66213;SHT31;53015;50.046;8.238;2023-08-30T07:14:32;17.18;84.16
66213;SHT31;53015;50.046;8.238;2023-08-30T07:16:58;17.40;84.04
66213;SHT31;53015;50.046;8.238;2023-08-30T07:19:24;17.53;84.31
66213;SHT31;53015;50.046;8.238;2023-08-30T07:21:49;17.56;83.61
66213;SHT31;53015;50.046;8.238;2023-08-30T07:24:15;17.38;83.57
66213;SHT31;53015;50.046;8.238;2023-08-30T07:26:42;17.19;83.49
66213;SHT31;53015;50.046;8.238;2023-08-30T07:29:09;17.14;84.51
66213;SHT31;53015;50.046;8.238;2023-08-30T07:31:34;17.51;83.81
66213;SHT31;53015;50.046;8.238;2023-08-30T07:34:00;17.65;83.44
66213;SHT31;53015;50.046;8.238;2023-08-30T07:36:25;17.81;82.42
66213;SHT31;53015;50.046;8.238;2023-08-30T07:38:51;17.87;82.23
66213;SHT31;53015;50.046;8.238;2023-08-30T07:41:16;18.01;81.69
66213;SHT31;53015;50.046;8.238;2023-08-30T07:43:43;18.00;81.67
66213;SHT31;53015;50.046;8.238;2023-08-30T07:46:09;17.83;81.47
66213;SHT31;53015;50.046;8.238;2023-08-30T07:48:35;17.57;82.35
66213;SHT31;53015;50.046;8.238;2023-08-30T07:51:00;17.69;82.38
66213;SHT31;53015;50.046;8.238;2023-08-30T07:53:26;17.60;82.78
66213;SHT31;53015;50.046;8.238;2023-08-30T07:55:51;17.69;82.25
66213;SHT31;53015;50.046;8.238;2023-08-30T07:58:17;17.63;82.38
66213;SHT31;53015;50.046;8.238;2023-08-30T08:00:44;17.60;82.48
66213;SHT31;53015;50.046;8.238;2023-08-30T08:03:09;17.65;82.35
66213;SHT31;53015;50.046;8.238;2023-08-30T08:05:35;17.67;82.04
66213;SHT31;53015;50.046;8.238;2023-08-30T08:08:01;17.54;80.87
66213;SHT31;53015;50.046;8.238;2023-08-30T08:10:26;17.42;81.66
66213;SHT31;53015;50.046;8.238;2023-08-30T08:12:52;17.49;81.25
66213;SHT31;53015;50.046;8.238;2023-08-30T08:15:17;17.54;81.44
66213;SHT31;53015;50.046;8.238;2023-08-30T08:17:44;17.71;81.47
66213;SHT31;53015;50.046;8.238;2023-08-30T08:20:11;17.71;81.21
66213;SHT31;53015;50.046;8.238;2023-08-30T08:22:36;17.69;81.10
66213;SHT31;53015;50.046;8.238;2023-08-30T08:25:02;17.74;81.05
66213;SHT31;53015;50.046;8.238;2023-08-30T08:27:28;17.78;80.93
66213;SHT31;53015;50.046;8.238;2023-08-30T08:29:53;17.70;81.07
66213;SHT31;53015;50.046;8.238;2023-08-30T08:32:18;17.81;81.10
66213;SHT31;53015;50.046;8.238;2023-08-30T08:34:45;17.77;80.80
66213;SHT31;53015;50.046;8.238;2023-08-30T08:37:11;17.94;80.67
66213;SHT31;53015;50.046;8.238;2023-08-30T08:39:37;17.97;81.48
66213;SHT31;53015;50.046;8.238;2023-08-30T08:42:03;18.02;80.83
66213;SHT31;53015;50.046;8.238;2023-08-30T08:44:31;18.18;80.96
66213;SHT31;53015;50.046;8.238;2023-08-30T08:46:58;18.06;80.76
66213;SHT31;53015;50.046;8.238;2023-08-30T08:49:25;17.94;81.43
66213;SHT31;53015;50.046;8.238;2023-08-30T08:51:52;18.04;82.02
66213;SHT31;53015;50.046;8.238;2023-08-30T08:54:17;18.21;81.53
66213;SHT31;53015;50.046;8.238;2023-08-30T08:56:44;18.22;81.34
66213;SHT31;53015;50.046;8.238;2023-08-30T08:59:10;18.33;80.71
66213;SHT31;53015;50.046;8.238;2023-08-30T09:01:36;18.52;81.04
66213;SHT31;53015;50.046;8.238;2023-08-30T09:04:04;18.36;80.51
66213;SHT31;53015;50.046;8.238;2023-08-30T09:06:30;18.43;80.52
66213;SHT31;53015;50.046;8.238;2023-08-30T09:08:57;18.57;80.78
66213;SHT31;53015;50.046;8.238;2023-08-30T09:11:22;18.76;80.37
66213;SHT31;53015;50.046;8.238;2023-08-30T09:13:48;18.71;79.74
66213;SHT31;53015;50.046;8.238;2023-08-30T09:16:13;18.87;79.56
66213;SHT31;53015;50.046;8.238;2023-08-30T09:18:39;18.83;79.49
66213;SHT31;53015;50.046;8.238;2023-08-30T09:21:05;19.07;79.22
66213;SHT31;53015;50.046;8.238;2023-08-30T09:23:30;19.25;78.04
66213;SHT31;53015;50.046;8.238;2023-08-30T09:25:57;19.34;77.18
66213;SHT31;53015;50.046;8.238;2023-08-30T09:28:23;19.39;77.32
66213;SHT31;53015;50.046;8.238;2023-08-30T09:30:49;19.52;78.01
66213;SHT31;53015;50.046;8.238;2023-08-30T09:33:15;19.67;76.23
66213;SHT31;53015;50.046;8.238;2023-08-30T09:35:44;19.74;75.28
66213;SHT31;53015;50.046;8.238;2023-08-30T09:38:16;19.77;74.16
66213;SHT31;53015;50.046;8.238;2023-08-30T09:40:41;19.89;74.69
66213;SHT31;53015;50.046;8.238;2023-08-30T09:43:09;20.00;74.52
66213;SHT31;53015;50.046;8.238;2023-08-30T09:45:34;20.10;74.37
66213;SHT31;53015;50.046;8.238;2023-08-30T09:48:00;20.20;74.32
66213;SHT31;53015;50.046;8.238;2023-08-30T09:50:27;20.35;73.58
66213;SHT31;53015;50.046;8.238;2023-08-30T09:52:54;20.75;72.94
66213;SHT31;53015;50.046;8.238;2023-08-30T09:55:21;20.89;71.20
66213;SHT31;53015;50.046;8.238;2023-08-30T09:57:48;21.08;70.89
66213;SHT31;53015;50.046;8.238;2023-08-30T10:00:16;21.14;70.50
66213;SHT31;53015;50.046;8.238;2023-08-30T10:02:42;21.28;69.79
66213;SHT31;53015;50.046;8.238;2023-08-30T10:05:08;21.28;70.63
66213;SHT31;53015;50.046;8.238;2023-08-30T10:07:35;21.32;69.88
66213;SHT31;53015;50.046;8.238;2023-08-30T10:10:02;21.56;69.97
66213;SHT31;53015;50.046;8.238;2023-08-30T10:12:29;21.52;68.76
66213;SHT31;53015;50.046;8.238;2023-08-30T10:14:54;21.45;69.96
66213;SHT31;53015;50.046;8.238;2023-08-30T10:17:22;21.47;69.62
66213;SHT31;53015;50.046;8.238;2023-08-30T10:19:50;21.69;68.17
66213;SHT31;53015;50.046;8.238;2023-08-30T10:22:17;21.65;68.65
66213;SHT31;53015;50.046;8.238;2023-08-30T10:24:46;21.63;70.59
66213;SHT31;53015;50.046;8.238;2023-08-30T10:27:13;21.89;69.31
66213;SHT31;53015;50.046;8.238;2023-08-30T10:29:40;21.96;68.94
66213;SHT31;53015;50.046;8.238;2023-08-30T10:32:07;21.82;68.80
66213;SHT31;53015;50.046;8.238;2023-08-30T10:34:34;21.90;68.23
66213;SHT31;53015;50.046;8.238;2023-08-30T10:37:01;21.72;69.18
66213;SHT31;53015;50.046;8.238;2023-08-30T10:39:34;21.59;68.72
66213;SHT31;53015;50.046;8.238;2023-08-30T10:42:00;21.18;70.60
66213;SHT31;53015;50.046;8.238;2023-08-30T10:44:25;20.99;70.98
66213;SHT31;53015;50.046;8.238;2023-08-30T10:46:55;20.62;70.53
66213;SHT31;53015;50.046;8.238;2023-08-30T10:49:21;20.49;71.10
66213;SHT31;53015;50.046;8.238;2023-08-30T10:51:54;20.53;73.15
66213;SHT31;53015;50.046;8.238;2023-08-30T10:54:20;20.71;71.96
66213;SHT31;53015;50.046;8.238;2023-08-30T10:56:46;20.77;71.33
66213;SHT31;53015;50.046;8.238;2023-08-30T10:59:16;20.75;70.62
66213;SHT31;53015;50.046;8.238;2023-08-30T11:01:43;21.08;70.04
66213;SHT31;53015;50.046;8.238;2023-08-30T11:04:09;21.14;68.93
66213;SHT31;53015;50.046;8.238;2023-08-30T11:06:37;21.34;68.99
66213;SHT31;53015;50.046;8.238;2023-08-30T11:09:05;21.48;69.39
66213;SHT31;53015;50.046;8.238;2023-08-30T11:11:31;21.71;68.14
66213;SHT31;53015;50.046;8.238;2023-08-30T11:14:03;21.78;67.57
66213;SHT31;53015;50.046;8.238;2023-08-30T11:16:29;21.89;67.95
66213;SHT31;53015;50.046;8.238;2023-08-30T11:18:54;21.99;67.55
66213;SHT31;53015;50.046;8.238;2023-08-30T11:21:20;21.96;65.74
66213;SHT31;53015;50.046;8.238;2023-08-30T11:23:46;22.03;65.83
66213;SHT31;53015;50.046;8.238;2023-08-30T11:26:13;22.09;66.02
66213;SHT31;53015;50.046;8.238;2023-08-30T11:28:42;22.16;64.57
66213;SHT31;53015;50.046;8.238;2023-08-30T11:31:07;22.36;60.55
66213;SHT31;53015;50.046;8.238;2023-08-30T11:33:33;22.57;63.58
66213;SHT31;53015;50.046;8.238;2023-08-30T11:35:58;22.49;61.08
66213;SHT31;53015;50.046;8.238;2023-08-30T11:38:24;22.84;60.24
66213;SHT31;53015;50.046;8.238;2023-08-30T11:40:51;22.96;59.71
66213;SHT31;53015;50.046;8.238;2023-08-30T11:43:19;23.19;58.92
66213;SHT31;53015;50.046;8.238;2023-08-30T11:45:44;23.27;58.02
66213;SHT31;53015;50.046;8.238;2023-08-30T11:48:10;23.26;58.98
66213;SHT31;53015;50.046;8.238;2023-08-30T11:50:36;23.27;57.77
66213;SHT31;53015;50.046;8.238;2023-08-30T11:53:03;23.41;59.20
66213;SHT31;53015;50.046;8.238;2023-08-30T11:55:28;23.16;59.59
66213;SHT31;53015;50.046;8.238;2023-08-30T11:57:54;23.19;59.88
66213;SHT31;53015;50.046;8.238;2023-08-30T12:00:22;23.17;59.37
66213;SHT31;53015;50.046;8.238;2023-08-30T12:02:48;23.41;60.82
66213;SHT31;53015;50.046;8.238;2023-08-30T12:05:14;23.57;59.85
66213;SHT31;53015;50.046;8.238;2023-08-30T12:07:39;23.54;60.89
66213;SHT31;53015;50.046;8.238;2023-08-30T12:10:06;23.60;58.16
66213;SHT31;53015;50.046;8.238;2023-08-30T12:12:31;23.55;59.13
66213;SHT31;53015;50.046;8.238;2023-08-30T12:14:57;23.46;58.07
66213;SHT31;53015;50.046;8.238;2023-08-30T12:17:24;23.51;59.08
66213;SHT31;53015;50.046;8.238;2023-08-30T12:19:55;23.40;59.49
66213;SHT31;53015;50.046;8.238;2023-08-30T12:22:21;23.33;59.79
66213;SHT31;53015;50.046;8.238;2023-08-30T12:24:46;23.50;60.29
66213;SHT31;53015;50.046;8.238;2023-08-30T12:27:12;23.69;60.59
66213;SHT31;53015;50.046;8.238;2023-08-30T12:29:38;24.05;60.54
66213;SHT31;53015;50.046;8.238;2023-08-30T12:32:04;24.32;58.03
66213;SHT31;53015;50.046;8.238;2023-08-30T12:34:31;24.20;56.67
66213;SHT31;53015;50.046;8.238;2023-08-30T12:36:56;24.44;57.60
66213;SHT31;53015;50.046;8.238;2023-08-30T12:39:22;24.59;56.67
66213;SHT31;53015;50.046;8.238;2023-08-30T12:41:48;24.30;54.76
66213;SHT31;53015;50.046;8.238;2023-08-30T12:44:14;24.20;55.69
66213;SHT31;53015;50.046;8.238;2023-08-30T12:46:39;23.68;57.53
66213;SHT31;53015;50.046;8.238;2023-08-30T12:49:05;23.71;57.15
66213;SHT31;53015;50.046;8.238;2023-08-30T12:51:32;23.57;57.99
66213;SHT31;53015;50.046;8.238;2023-08-30T12:53:57;23.55;57.35
66213;SHT31;53015;50.046;8.238;2023-08-30T12:56:22;23.43;57.29
66213;SHT31;53015;50.046;8.238;2023-08-30T12:58:48;23.39;56.86
66213;SHT31;53015;50.046;8.238;2023-08-30T13:01:14;23.44;55.99
66213;SHT31;53015;50.046;8.238;2023-08-30T13:03:39;23.64;56.32
66213;SHT31;53015;50.046;8.238;2023-08-30T13:06:05;23.47;58.42
66213;SHT31;53015;50.046;8.238;2023-08-30T13:08:32;23.81;54.50
66213;SHT31;53015;50.046;8.238;2023-08-30T13:10:59;23.99;53.27
66213;SHT31;53015;50.046;8.238;2023-08-30T13:13:25;23.77;53.68
66213;SHT31;53015;50.046;8.238;2023-08-30T13:15:51;23.33;53.63
66213;SHT31;53015;50.046;8.238;2023-08-30T13:18:16;23.13;55.25
66213;SHT31;53015;50.046;8.238;2023-08-30T13:20:41;22.95;55.36
66213;SHT31;53015;50.046;8.238;2023-08-30T13:23:07;23.09;56.28
66213;SHT31;53015;50.046;8.238;2023-08-30T13:25:34;23.23;56.30
66213;SHT31;53015;50.046;8.238;2023-08-30T13:28:03;23.03;56.85
66213;SHT31;53015;50.046;8.238;2023-08-30T13:30:29;23.14;55.37
66213;SHT31;53015;50.046;8.238;2023-08-30T13:32:54;23.28;56.06
66213;SHT31;53015;50.046;8.238;2023-08-30T13:35:20;23.43;56.19
66213;SHT31;53015;50.046;8.238;2023-08-30T13:37:45;23.62;54.37
66213;SHT31;53015;50.046;8.238;2023-08-30T13:40:11;23.81;55.18
66213;SHT31;53015;50.046;8.238;2023-08-30T13:42:39;24.05;55.74
66213;SHT31;53015;50.046;8.238;2023-08-30T13:45:06;23.79;54.99
66213;SHT31;53015;50.046;8.238;2023-08-30T13:47:32;23.72;54.71
66213;SHT31;53015;50.046;8.238;2023-08-30T13:49:57;23.89;55.68
66213;SHT31;53015;50.046;8.238;2023-08-30T13:52:23;23.60;54.98
66213;SHT31;53015;50.046;8.238;2023-08-30T13:54:48;23.72;56.50
66213;SHT31;53015;50.046;8.238;2023-08-30T13:57:14;23.40;57.46
66213;SHT31;53015;50.046;8.238;2023-08-30T13:59:41;23.57;55.78
66213;SHT31;53015;50.046;8.238;2023-08-30T14:02:06;23.68;55.54
66213;SHT31;53015;50.046;8.238;2023-08-30T14:04:32;23.57;55.61
66213;SHT31;53015;50.046;8.238;2023-08-30T14:06:57;23.50;55.95
66213;SHT31;53015;50.046;8.238;2023-08-30T14:09:23;23.57;56.03
66213;SHT31;53015;50.046;8.238;2023-08-30T14:11:49;23.88;55.57
66213;SHT31;53015;50.046;8.238;2023-08-30T14:14:14;23.84;55.99
66213;SHT31;53015;50.046;8.238;2023-08-30T14:16:41;23.74;55.30
66213;SHT31;53015;50.046;8.238;2023-08-30T14:19:07;23.86;57.37
66213;SHT31;53015;50.046;8.238;2023-08-30T14:21:32;23.92;57.60
66213;SHT31;53015;50.046;8.238;2023-08-30T14:23:58;23.90;55.95
66213;SHT31;53015;50.046;8.238;2023-08-30T14:26:24;24.02;56.43
66213;SHT31;53015;50.046;8.238;2023-08-30T14:28:49;23.74;57.40
66213;SHT31;53015;50.046;8.238;2023-08-30T14:31:15;23.54;58.05
66213;SHT31;53015;50.046;8.238;2023-08-30T14:33:43;23.57;56.94
66213;SHT31;53015;50.046;8.238;2023-08-30T14:36:09;23.44;57.58
66213;SHT31;53015;50.046;8.238;2023-08-30T14:38:34;23.54;57.06
66213;SHT31;53015;50.046;8.238;2023-08-30T14:41:00;23.65;57.13
66213;SHT31;53015;50.046;8.238;2023-08-30T14:43:26;24.02;57.24
66213;SHT31;53015;50.046;8.238;2023-08-30T14:45:59;24.23;56.39
66213;SHT31;53015;50.046;8.238;2023-08-30T14:48:24;24.22;59.13
66213;SHT31;53015;50.046;8.238;2023-08-30T14:50:51;24.13;58.47
66213;SHT31;53015;50.046;8.238;2023-08-30T14:53:17;24.23;58.45
66213;SHT31;53015;50.046;8.238;2023-08-30T14:55:44;24.23;57.43
66213;SHT31;53015;50.046;8.238;2023-08-30T14:58:09;24.40;57.69
66213;SHT31;53015;50.046;8.238;2023-08-30T15:00:35;24.51;56.21
66213;SHT31;53015;50.046;8.238;2023-08-30T15:03:00;24.49;56.50
66213;SHT31;53015;50.046;8.238;2023-08-30T15:05:26;24.26;56.21
66213;SHT31;53015;50.046;8.238;2023-08-30T15:07:53;24.20;56.10
66213;SHT31;53015;50.046;8.238;2023-08-30T15:10:18;24.22;57.38
66213;SHT31;53015;50.046;8.238;2023-08-30T15:12:44;24.20;56.61
66213;SHT31;53015;50.046;8.238;2023-08-30T15:15:09;24.12;57.03
66213;SHT31;53015;50.046;8.238;2023-08-30T15:17:35;23.96;58.36
66213;SHT31;53015;50.046;8.238;2023-08-30T15:20:00;23.68;59.30
66213;SHT31;53015;50.046;8.238;2023-08-30T15:22:26;23.98;58.88